Velarde, New Mexico
Current Conditions -  °F | °C
As of 2:15 PM on Friday 24 Oct 2014 (Local Time) from KLAM Reporting Station
Clear Clear  
Wind Chill: 69°   Ceiling: Unl
Heat Index: 69°   Visibility: 10mi
Dew Point: 32°   Wind: 5mph
Humidity: 25%   Direction: 60°ENE
Pressure: 30.36"   Gusts: NA
Location:  36.16°N, 105.97°W
Report Text: KLAM 242015Z AUTO 06004KT 10SM CLR 21/00 A3036 RMK AO2 T02060000
Loading
Personal Weather Stations






























Interactive Weather Map
Tropical Storm Tracking
New forecast layout! Learn more

10-Day Weather Forecast

Advertisements
Track Severe Weather on mobile